sensor_id;sensor_type;location;lat;lon;timestamp;temperature;humidity
63317;DHT22;49822;41.468;13.560;2022-11-02T00:01:41;13.90;83.50
63317;DHT22;49822;41.468;13.560;2022-11-02T00:04:09;13.70;85.10
63317;DHT22;49822;41.468;13.560;2022-11-02T00:06:37;13.60;86.70
63317;DHT22;49822;41.468;13.560;2022-11-02T00:09:04;13.60;85.80
63317;DHT22;49822;41.468;13.560;2022-11-02T00:11:32;13.50;84.20
63317;DHT22;49822;41.468;13.560;2022-11-02T00:14:00;13.50;84.70
63317;DHT22;49822;41.468;13.560;2022-11-02T00:16:28;13.30;86.30
63317;DHT22;49822;41.468;13.560;2022-11-02T00:18:57;13.30;87.60
63317;DHT22;49822;41.468;13.560;2022-11-02T00:21:26;13.50;87.50
63317;DHT22;49822;41.468;13.560;2022-11-02T00:23:55;13.60;85.70
63317;DHT22;49822;41.468;13.560;2022-11-02T00:26:24;13.50;85.50
63317;DHT22;49822;41.468;13.560;2022-11-02T00:28:52;13.30;85.40
63317;DHT22;49822;41.468;13.560;2022-11-02T00:31:20;13.20;85.60
63317;DHT22;49822;41.468;13.560;2022-11-02T00:33:48;13.30;86.50
63317;DHT22;49822;41.468;13.560;2022-11-02T00:36:17;13.30;86.00
63317;DHT22;49822;41.468;13.560;2022-11-02T00:38:45;13.30;85.40
63317;DHT22;49822;41.468;13.560;2022-11-02T00:41:12;13.10;86.50
63317;DHT22;49822;41.468;13.560;2022-11-02T00:43:40;13.20;88.10
63317;DHT22;49822;41.468;13.560;2022-11-02T00:46:08;13.30;88.30
63317;DHT22;49822;41.468;13.560;2022-11-02T00:48:35;13.50;88.00
63317;DHT22;49822;41.468;13.560;2022-11-02T00:51:04;13.50;85.20
63317;DHT22;49822;41.468;13.560;2022-11-02T00:53:34;13.10;84.90
63317;DHT22;49822;41.468;13.560;2022-11-02T00:56:02;13.00;86.90
63317;DHT22;49822;41.468;13.560;2022-11-02T00:58:31;13.10;88.90
63317;DHT22;49822;41.468;13.560;2022-11-02T01:01:04;13.10;89.80
63317;DHT22;49822;41.468;13.560;2022-11-02T01:03:36;13.30;89.60
63317;DHT22;49822;41.468;13.560;2022-11-02T01:06:13;13.30;87.10
63317;DHT22;49822;41.468;13.560;2022-11-02T01:08:41;13.10;85.70
63317;DHT22;49822;41.468;13.560;2022-11-02T01:11:14;13.10;87.50
63317;DHT22;49822;41.468;13.560;2022-11-02T01:13:43;13.20;87.80
63317;DHT22;49822;41.468;13.560;2022-11-02T01:16:13;13.30;87.90
63317;DHT22;49822;41.468;13.560;2022-11-02T01:18:41;13.40;87.70
63317;DHT22;49822;41.468;13.560;2022-11-02T01:21:08;13.50;87.90
63317;DHT22;49822;41.468;13.560;2022-11-02T01:23:38;13.50;87.10
63317;DHT22;49822;41.468;13.560;2022-11-02T01:26:08;13.50;86.10
63317;DHT22;49822;41.468;13.560;2022-11-02T01:28:36;13.60;85.70
63317;DHT22;49822;41.468;13.560;2022-11-02T01:31:06;13.50;82.70
63317;DHT22;49822;41.468;13.560;2022-11-02T01:33:36;13.50;82.80
63317;DHT22;49822;41.468;13.560;2022-11-02T01:36:05;13.50;82.60
63317;DHT22;49822;41.468;13.560;2022-11-02T01:38:33;13.50;83.70
63317;DHT22;49822;41.468;13.560;2022-11-02T01:41:03;13.50;84.20
63317;DHT22;49822;41.468;13.560;2022-11-02T01:43:33;13.50;83.40
63317;DHT22;49822;41.468;13.560;2022-11-02T01:46:06;13.50;83.00
63317;DHT22;49822;41.468;13.560;2022-11-02T01:48:57;13.50;80.60
63317;DHT22;49822;41.468;13.560;2022-11-02T01:51:37;13.20;81.90
63317;DHT22;49822;41.468;13.560;2022-11-02T01:54:13;13.00;84.20
63317;DHT22;49822;41.468;13.560;2022-11-02T01:56:46;13.00;84.60
63317;DHT22;49822;41.468;13.560;2022-11-02T01:59:18;12.90;83.70
63317;DHT22;49822;41.468;13.560;2022-11-02T02:01:48;12.50;85.50
63317;DHT22;49822;41.468;13.560;2022-11-02T02:04:16;12.40;87.10
63317;DHT22;49822;41.468;13.560;2022-11-02T02:06:43;12.40;86.90
63317;DHT22;49822;41.468;13.560;2022-11-02T02:09:12;12.50;85.80
63317;DHT22;49822;41.468;13.560;2022-11-02T02:11:43;12.50;85.30
63317;DHT22;49822;41.468;13.560;2022-11-02T02:14:14;12.50;83.80
63317;DHT22;49822;41.468;13.560;2022-11-02T02:17:11;12.50;83.40
63317;DHT22;49822;41.468;13.560;2022-11-02T02:31:51;12.20;85.70
63317;DHT22;49822;41.468;13.560;2022-11-02T02:34:38;12.20;84.80
63317;DHT22;49822;41.468;13.560;2022-11-02T02:37:13;12.20;84.60
63317;DHT22;49822;41.468;13.560;2022-11-02T02:39:48;12.20;85.50
63317;DHT22;49822;41.468;13.560;2022-11-02T02:42:37;12.20;85.70
63317;DHT22;49822;41.468;13.560;2022-11-02T02:48:02;11.90;88.60
63317;DHT22;49822;41.468;13.560;2022-11-02T02:50:54;12.00;88.10
63317;DHT22;49822;41.468;13.560;2022-11-02T02:53:44;12.00;88.00
63317;DHT22;49822;41.468;13.560;2022-11-02T02:56:18;12.00;89.40
63317;DHT22;49822;41.468;13.560;2022-11-02T02:58:57;12.10;88.60
63317;DHT22;49822;41.468;13.560;2022-11-02T03:01:27;12.00;88.10
63317;DHT22;49822;41.468;13.560;2022-11-02T03:03:55;12.00;89.50
63317;DHT22;49822;41.468;13.560;2022-11-02T03:06:34;11.90;90.00
63317;DHT22;49822;41.468;13.560;2022-11-02T03:12:13;11.40;87.30
63317;DHT22;49822;41.468;13.560;2022-11-02T03:23:46;10.90;89.40
63317;DHT22;49822;41.468;13.560;2022-11-02T03:29:09;11.00;94.00
63317;DHT22;49822;41.468;13.560;2022-11-02T03:31:57;11.40;94.00
63317;DHT22;49822;41.468;13.560;2022-11-02T03:34:43;11.50;92.10
63317;DHT22;49822;41.468;13.560;2022-11-02T03:37:28;11.50;89.00
63317;DHT22;49822;41.468;13.560;2022-11-02T03:40:08;11.40;87.90
63317;DHT22;49822;41.468;13.560;2022-11-02T03:42:42;11.40;88.20
63317;DHT22;49822;41.468;13.560;2022-11-02T03:45:16;11.50;87.70
63317;DHT22;49822;41.468;13.560;2022-11-02T03:47:49;11.70;86.20
63317;DHT22;49822;41.468;13.560;2022-11-02T03:50:21;11.70;85.40
63317;DHT22;49822;41.468;13.560;2022-11-02T03:53:05;11.90;84.50
63317;DHT22;49822;41.468;13.560;2022-11-02T03:55:41;11.70;83.20
63317;DHT22;49822;41.468;13.560;2022-11-02T03:58:12;11.70;83.00
63317;DHT22;49822;41.468;13.560;2022-11-02T04:00:57;11.80;84.50
63317;DHT22;49822;41.468;13.560;2022-11-02T04:03:31;11.70;82.80
63317;DHT22;49822;41.468;13.560;2022-11-02T04:06:00;11.60;83.60
63317;DHT22;49822;41.468;13.560;2022-11-02T04:08:36;11.70;83.20
63317;DHT22;49822;41.468;13.560;2022-11-02T04:11:08;11.70;83.30
63317;DHT22;49822;41.468;13.560;2022-11-02T04:14:01;11.70;84.30
63317;DHT22;49822;41.468;13.560;2022-11-02T04:16:47;11.50;85.10
63317;DHT22;49822;41.468;13.560;2022-11-02T04:19:25;11.70;85.10
63317;DHT22;49822;41.468;13.560;2022-11-02T04:21:59;11.70;84.50
63317;DHT22;49822;41.468;13.560;2022-11-02T04:24:50;11.90;83.70
63317;DHT22;49822;41.468;13.560;2022-11-02T04:27:37;11.90;82.00
63317;DHT22;49822;41.468;13.560;2022-11-02T04:30:06;11.90;80.70
63317;DHT22;49822;41.468;13.560;2022-11-02T04:32:42;11.70;80.60
63317;DHT22;49822;41.468;13.560;2022-11-02T04:35:34;11.70;81.20
63317;DHT22;49822;41.468;13.560;2022-11-02T04:38:03;11.40;83.20
63317;DHT22;49822;41.468;13.560;2022-11-02T04:40:49;11.10;85.80
63317;DHT22;49822;41.468;13.560;2022-11-02T04:43:36;11.00;87.80
63317;DHT22;49822;41.468;13.560;2022-11-02T04:46:05;10.90;87.50
63317;DHT22;49822;41.468;13.560;2022-11-02T04:48:37;10.90;88.10
63317;DHT22;49822;41.468;13.560;2022-11-02T04:51:05;10.90;88.40
63317;DHT22;49822;41.468;13.560;2022-11-02T04:53:32;11.10;88.50
63317;DHT22;49822;41.468;13.560;2022-11-02T04:56:07;11.10;86.80
63317;DHT22;49822;41.468;13.560;2022-11-02T04:58:35;11.10;87.00
63317;DHT22;49822;41.468;13.560;2022-11-02T05:01:23;11.30;86.00
63317;DHT22;49822;41.468;13.560;2022-11-02T05:03:53;11.30;85.20
63317;DHT22;49822;41.468;13.560;2022-11-02T05:06:23;11.30;85.50
63317;DHT22;49822;41.468;13.560;2022-11-02T05:08:52;11.10;85.60
63317;DHT22;49822;41.468;13.560;2022-11-02T05:11:20;11.10;85.80
63317;DHT22;49822;41.468;13.560;2022-11-02T05:13:49;11.30;86.30
63317;DHT22;49822;41.468;13.560;2022-11-02T05:16:18;11.30;84.60
63317;DHT22;49822;41.468;13.560;2022-11-02T05:18:48;11.30;84.90
63317;DHT22;49822;41.468;13.560;2022-11-02T05:21:17;11.50;85.90
63317;DHT22;49822;41.468;13.560;2022-11-02T05:23:46;11.60;85.90
63317;DHT22;49822;41.468;13.560;2022-11-02T05:26:14;11.60;84.30
63317;DHT22;49822;41.468;13.560;2022-11-02T05:28:46;11.50;83.50
63317;DHT22;49822;41.468;13.560;2022-11-02T05:31:13;11.10;84.00
63317;DHT22;49822;41.468;13.560;2022-11-02T05:33:42;10.90;86.00
63317;DHT22;49822;41.468;13.560;2022-11-02T05:36:13;10.80;86.30
63317;DHT22;49822;41.468;13.560;2022-11-02T05:38:46;10.80;88.40
63317;DHT22;49822;41.468;13.560;2022-11-02T05:41:14;10.90;90.10
63317;DHT22;49822;41.468;13.560;2022-11-02T05:43:42;10.80;87.90
63317;DHT22;49822;41.468;13.560;2022-11-02T05:46:12;10.50;86.90
63317;DHT22;49822;41.468;13.560;2022-11-02T05:48:42;10.50;86.80
63317;DHT22;49822;41.468;13.560;2022-11-02T05:51:10;10.50;87.20
63317;DHT22;49822;41.468;13.560;2022-11-02T05:53:40;10.50;85.20
63317;DHT22;49822;41.468;13.560;2022-11-02T05:56:09;10.30;86.70
63317;DHT22;49822;41.468;13.560;2022-11-02T05:58:37;10.40;86.50
63317;DHT22;49822;41.468;13.560;2022-11-02T06:01:06;10.50;85.50
63317;DHT22;49822;41.468;13.560;2022-11-02T06:03:34;10.70;84.70
63317;DHT22;49822;41.468;13.560;2022-11-02T06:06:04;10.90;83.70
63317;DHT22;49822;41.468;13.560;2022-11-02T06:08:34;10.90;82.80
63317;DHT22;49822;41.468;13.560;2022-11-02T06:11:07;11.00;82.20
63317;DHT22;49822;41.468;13.560;2022-11-02T06:13:35;11.10;81.50
63317;DHT22;49822;41.468;13.560;2022-11-02T06:16:04;11.20;80.60
63317;DHT22;49822;41.468;13.560;2022-11-02T06:18:32;11.30;80.70
63317;DHT22;49822;41.468;13.560;2022-11-02T06:21:00;11.50;80.90
63317;DHT22;49822;41.468;13.560;2022-11-02T06:23:28;11.60;80.70
63317;DHT22;49822;41.468;13.560;2022-11-02T06:25:57;11.70;81.50
63317;DHT22;49822;41.468;13.560;2022-11-02T06:28:26;11.90;81.20
63317;DHT22;49822;41.468;13.560;2022-11-02T06:30:55;11.90;77.90
63317;DHT22;49822;41.468;13.560;2022-11-02T06:33:27;11.50;79.50
63317;DHT22;49822;41.468;13.560;2022-11-02T06:35:56;11.50;81.30
63317;DHT22;49822;41.468;13.560;2022-11-02T06:38:24;11.70;81.70
63317;DHT22;49822;41.468;13.560;2022-11-02T06:40:58;11.90;81.10
63317;DHT22;49822;41.468;13.560;2022-11-02T06:43:33;12.00;81.00
63317;DHT22;49822;41.468;13.560;2022-11-02T06:46:04;12.20;80.10
63317;DHT22;49822;41.468;13.560;2022-11-02T06:48:33;12.50;79.50
63317;DHT22;49822;41.468;13.560;2022-11-02T06:51:03;12.50;79.20
63317;DHT22;49822;41.468;13.560;2022-11-02T06:53:32;12.60;79.40
63317;DHT22;49822;41.468;13.560;2022-11-02T06:56:01;12.60;80.40
63317;DHT22;49822;41.468;13.560;2022-11-02T06:58:29;12.70;81.60
63317;DHT22;49822;41.468;13.560;2022-11-02T07:01:00;12.50;82.10
63317;DHT22;49822;41.468;13.560;2022-11-02T07:03:30;12.60;82.00
63317;DHT22;49822;41.468;13.560;2022-11-02T07:05:58;12.70;82.10
63317;DHT22;49822;41.468;13.560;2022-11-02T07:08:26;12.60;81.80
63317;DHT22;49822;41.468;13.560;2022-11-02T07:10:54;12.50;82.50
63317;DHT22;49822;41.468;13.560;2022-11-02T07:13:22;12.50;83.70
63317;DHT22;49822;41.468;13.560;2022-11-02T07:15:54;12.50;84.00
63317;DHT22;49822;41.468;13.560;2022-11-02T07:18:23;12.30;85.10
63317;DHT22;49822;41.468;13.560;2022-11-02T07:20:50;12.30;85.00
63317;DHT22;49822;41.468;13.560;2022-11-02T07:23:18;12.50;84.70
63317;DHT22;49822;41.468;13.560;2022-11-02T07:25:50;12.70;84.20
63317;DHT22;49822;41.468;13.560;2022-11-02T07:28:18;12.90;83.60
63317;DHT22;49822;41.468;13.560;2022-11-02T07:30:47;13.10;84.30
63317;DHT22;49822;41.468;13.560;2022-11-02T07:33:17;13.10;82.90
63317;DHT22;49822;41.468;13.560;2022-11-02T07:35:45;13.10;83.20
63317;DHT22;49822;41.468;13.560;2022-11-02T07:38:12;13.30;83.30
63317;DHT22;49822;41.468;13.560;2022-11-02T07:40:40;13.50;83.10
63317;DHT22;49822;41.468;13.560;2022-11-02T07:43:07;13.80;81.80
63317;DHT22;49822;41.468;13.560;2022-11-02T07:45:42;14.10;81.30
63317;DHT22;49822;41.468;13.560;2022-11-02T07:48:16;14.20;80.20
63317;DHT22;49822;41.468;13.560;2022-11-02T07:50:48;14.30;79.60
63317;DHT22;49822;41.468;13.560;2022-11-02T07:53:18;14.60;79.30
63317;DHT22;49822;41.468;13.560;2022-11-02T07:55:45;14.50;80.10
63317;DHT22;49822;41.468;13.560;2022-11-02T07:58:13;14.50;80.70
63317;DHT22;49822;41.468;13.560;2022-11-02T08:00:44;14.60;80.00
63317;DHT22;49822;41.468;13.560;2022-11-02T08:03:15;14.70;79.90
63317;DHT22;49822;41.468;13.560;2022-11-02T08:05:43;14.90;79.90
63317;DHT22;49822;41.468;13.560;2022-11-02T08:08:18;15.00;79.10
63317;DHT22;49822;41.468;13.560;2022-11-02T08:10:48;15.30;79.00
63317;DHT22;49822;41.468;13.560;2022-11-02T08:13:18;15.40;78.70
63317;DHT22;49822;41.468;13.560;2022-11-02T08:15:51;15.50;78.80
63317;DHT22;49822;41.468;13.560;2022-11-02T08:18:26;15.50;77.30
63317;DHT22;49822;41.468;13.560;2022-11-02T08:20:55;15.50;78.10
63317;DHT22;49822;41.468;13.560;2022-11-02T08:23:24;15.50;78.90
63317;DHT22;49822;41.468;13.560;2022-11-02T08:25:53;15.70;79.70
63317;DHT22;49822;41.468;13.560;2022-11-02T08:28:23;16.00;78.70
63317;DHT22;49822;41.468;13.560;2022-11-02T08:30:53;16.10;77.30
63317;DHT22;49822;41.468;13.560;2022-11-02T08:33:21;16.30;77.20
63317;DHT22;49822;41.468;13.560;2022-11-02T08:35:49;16.40;76.40
63317;DHT22;49822;41.468;13.560;2022-11-02T08:38:17;16.40;76.90
63317;DHT22;49822;41.468;13.560;2022-11-02T08:40:44;16.40;76.50
63317;DHT22;49822;41.468;13.560;2022-11-02T08:43:12;16.20;76.80
63317;DHT22;49822;41.468;13.560;2022-11-02T08:45:44;16.00;78.60
63317;DHT22;49822;41.468;13.560;2022-11-02T08:48:35;16.30;78.00
63317;DHT22;49822;41.468;13.560;2022-11-02T08:51:02;16.70;76.60
63317;DHT22;49822;41.468;13.560;2022-11-02T08:53:31;17.00;76.00
63317;DHT22;49822;41.468;13.560;2022-11-02T08:55:59;17.20;74.60
63317;DHT22;49822;41.468;13.560;2022-11-02T08:58:27;17.50;73.50
63317;DHT22;49822;41.468;13.560;2022-11-02T09:00:56;17.60;71.70
63317;DHT22;49822;41.468;13.560;2022-11-02T09:03:25;17.70;73.00
63317;DHT22;49822;41.468;13.560;2022-11-02T09:05:59;18.00;72.70
63317;DHT22;49822;41.468;13.560;2022-11-02T09:08:28;18.00;72.10
63317;DHT22;49822;41.468;13.560;2022-11-02T09:11:02;18.20;70.50
63317;DHT22;49822;41.468;13.560;2022-11-02T09:13:30;18.40;70.40
63317;DHT22;49822;41.468;13.560;2022-11-02T09:15:59;18.40;70.00
63317;DHT22;49822;41.468;13.560;2022-11-02T09:18:29;18.30;70.10
63317;DHT22;49822;41.468;13.560;2022-11-02T09:21:01;18.20;70.90
63317;DHT22;49822;41.468;13.560;2022-11-02T09:23:29;18.50;70.00
63317;DHT22;49822;41.468;13.560;2022-11-02T09:25:58;18.60;70.30
63317;DHT22;49822;41.468;13.560;2022-11-02T09:28:26;18.90;69.20
63317;DHT22;49822;41.468;13.560;2022-11-02T09:30:56;19.10;68.10
63317;DHT22;49822;41.468;13.560;2022-11-02T09:33:28;19.30;67.90
63317;DHT22;49822;41.468;13.560;2022-11-02T09:36:01;19.60;66.60
63317;DHT22;49822;41.468;13.560;2022-11-02T09:38:30;19.60;66.60
63317;DHT22;49822;41.468;13.560;2022-11-02T09:43:44;19.90;65.00
63317;DHT22;49822;41.468;13.560;2022-11-02T09:46:24;20.00;65.50
63317;DHT22;49822;41.468;13.560;2022-11-02T09:51:57;19.70;64.20
63317;DHT22;49822;41.468;13.560;2022-11-02T09:54:41;19.90;64.90
63317;DHT22;49822;41.468;13.560;2022-11-02T09:57:14;20.10;63.40
63317;DHT22;49822;41.468;13.560;2022-11-02T09:59:42;20.00;63.80
63317;DHT22;49822;41.468;13.560;2022-11-02T10:02:53;20.70;62.60
63317;DHT22;49822;41.468;13.560;2022-11-02T10:10:40;23.70;53.60
63317;DHT22;49822;41.468;13.560;2022-11-02T10:14:16;24.70;51.00
63317;DHT22;49822;41.468;13.560;2022-11-02T10:16:35;25.80;47.60
63317;DHT22;49822;41.468;13.560;2022-11-02T10:19:11;26.60;46.30
63317;DHT22;49822;41.468;13.560;2022-11-02T10:21:42;27.60;45.00
63317;DHT22;49822;41.468;13.560;2022-11-02T10:27:01;28.90;41.20
63317;DHT22;49822;41.468;13.560;2022-11-02T10:32:10;28.10;43.90
63317;DHT22;49822;41.468;13.560;2022-11-02T10:34:38;28.40;43.80
63317;DHT22;49822;41.468;13.560;2022-11-02T10:40:38;27.80;43.90
63317;DHT22;49822;41.468;13.560;2022-11-02T10:43:12;27.50;43.60
63317;DHT22;49822;41.468;13.560;2022-11-02T10:49:04;25.60;48.10
63317;DHT22;49822;41.468;13.560;2022-11-02T10:51:35;25.60;47.90
63317;DHT22;49822;41.468;13.560;2022-11-02T10:54:12;25.20;47.70
63317;DHT22;49822;41.468;13.560;2022-11-02T10:56:48;24.80;50.00
63317;DHT22;49822;41.468;13.560;2022-11-02T10:59:18;25.00;49.20
63317;DHT22;49822;41.468;13.560;2022-11-02T11:02:12;24.30;50.20
63317;DHT22;49822;41.468;13.560;2022-11-02T11:04:42;23.60;53.40
63317;DHT22;49822;41.468;13.560;2022-11-02T11:07:32;23.80;52.50
63317;DHT22;49822;41.468;13.560;2022-11-02T11:10:00;23.90;52.70
63317;DHT22;49822;41.468;13.560;2022-11-02T11:12:32;24.00;53.20
63317;DHT22;49822;41.468;13.560;2022-11-02T11:15:01;24.20;52.30
63317;DHT22;49822;41.468;13.560;2022-11-02T11:17:49;24.20;52.70
63317;DHT22;49822;41.468;13.560;2022-11-02T11:20:39;24.40;51.80
63317;DHT22;49822;41.468;13.560;2022-11-02T11:25:42;24.40;51.70
63317;DHT22;49822;41.468;13.560;2022-11-02T11:31:35;24.60;51.80
63317;DHT22;49822;41.468;13.560;2022-11-02T11:34:02;24.20;52.20
63317;DHT22;49822;41.468;13.560;2022-11-02T11:36:33;23.60;53.30
63317;DHT22;49822;41.468;13.560;2022-11-02T11:39:26;23.60;53.70
63317;DHT22;49822;41.468;13.560;2022-11-02T11:41:56;23.90;53.40
63317;DHT22;49822;41.468;13.560;2022-11-02T11:44:24;24.20;52.30
63317;DHT22;49822;41.468;13.560;2022-11-02T11:46:55;24.50;53.00
63317;DHT22;49822;41.468;13.560;2022-11-02T11:49:25;24.70;51.90
63317;DHT22;49822;41.468;13.560;2022-11-02T11:52:19;24.90;50.90
63317;DHT22;49822;41.468;13.560;2022-11-02T11:55:00;24.90;51.90
63317;DHT22;49822;41.468;13.560;2022-11-02T11:57:33;25.20;50.90
63317;DHT22;49822;41.468;13.560;2022-11-02T12:00:04;25.30;50.80
63317;DHT22;49822;41.468;13.560;2022-11-02T12:03:05;25.10;51.10
63317;DHT22;49822;41.468;13.560;2022-11-02T12:14:07;25.50;50.90
63317;DHT22;49822;41.468;13.560;2022-11-02T12:17:00;25.40;50.80
63317;DHT22;49822;41.468;13.560;2022-11-02T12:22:54;25.00;50.90
63317;DHT22;49822;41.468;13.560;2022-11-02T12:25:43;24.70;52.00
63317;DHT22;49822;41.468;13.560;2022-11-02T12:36:51;25.00;51.60
63317;DHT22;49822;41.468;13.560;2022-11-02T12:46:01;24.80;52.60
63317;DHT22;49822;41.468;13.560;2022-11-02T12:49:07;25.00;53.00
63317;DHT22;49822;41.468;13.560;2022-11-02T12:51:53;25.00;52.10
63317;DHT22;49822;41.468;13.560;2022-11-02T12:54:55;25.30;51.20
63317;DHT22;49822;41.468;13.560;2022-11-02T12:57:23;25.30;52.90
63317;DHT22;49822;41.468;13.560;2022-11-02T13:00:00;25.40;51.90
63317;DHT22;49822;41.468;13.560;2022-11-02T13:05:19;24.30;53.60
63317;DHT22;49822;41.468;13.560;2022-11-02T13:08:09;24.20;54.30
63317;DHT22;49822;41.468;13.560;2022-11-02T13:10:43;24.50;54.40
63317;DHT22;49822;41.468;13.560;2022-11-02T13:13:42;25.00;53.70
63317;DHT22;49822;41.468;13.560;2022-11-02T13:16:13;25.40;51.80
63317;DHT22;49822;41.468;13.560;2022-11-02T13:18:49;25.20;52.10
63317;DHT22;49822;41.468;13.560;2022-11-02T13:21:37;25.00;52.50
63317;DHT22;49822;41.468;13.560;2022-11-02T13:24:16;25.20;52.40
63317;DHT22;49822;41.468;13.560;2022-11-02T13:26:47;25.60;51.10
63317;DHT22;49822;41.468;13.560;2022-11-02T13:29:38;25.80;50.40
63317;DHT22;49822;41.468;13.560;2022-11-02T13:37:40;24.20;53.50
63317;DHT22;49822;41.468;13.560;2022-11-02T13:40:25;24.10;54.50
63317;DHT22;49822;41.468;13.560;2022-11-02T13:48:54;23.60;55.50
63317;DHT22;49822;41.468;13.560;2022-11-02T13:51:34;23.60;55.60
63317;DHT22;49822;41.468;13.560;2022-11-02T13:54:11;23.70;55.50
63317;DHT22;49822;41.468;13.560;2022-11-02T13:56:40;23.30;55.90
63317;DHT22;49822;41.468;13.560;2022-11-02T13:59:17;23.10;57.70
63317;DHT22;49822;41.468;13.560;2022-11-02T14:01:46;23.10;56.60
63317;DHT22;49822;41.468;13.560;2022-11-02T14:04:14;23.00;56.40
63317;DHT22;49822;41.468;13.560;2022-11-02T14:09:27;22.90;57.60
63317;DHT22;49822;41.468;13.560;2022-11-02T14:12:23;22.80;58.10
63317;DHT22;49822;41.468;13.560;2022-11-02T14:39:49;26.10;50.80
63317;DHT22;49822;41.468;13.560;2022-11-02T14:42:44;25.60;51.20
63317;DHT22;49822;41.468;13.560;2022-11-02T14:45:18;24.70;54.00
63317;DHT22;49822;41.468;13.560;2022-11-02T14:47:59;24.30;55.70
63317;DHT22;49822;41.468;13.560;2022-11-02T14:50:29;23.90;57.40
63317;DHT22;49822;41.468;13.560;2022-11-02T14:53:05;22.80;59.50
63317;DHT22;49822;41.468;13.560;2022-11-02T14:55:36;22.00;63.30
63317;DHT22;49822;41.468;13.560;2022-11-02T14:58:31;21.70;66.10
63317;DHT22;49822;41.468;13.560;2022-11-02T15:01:03;21.50;66.40
63317;DHT22;49822;41.468;13.560;2022-11-02T15:03:38;21.30;67.40
63317;DHT22;49822;41.468;13.560;2022-11-02T15:06:19;21.30;68.20
63317;DHT22;49822;41.468;13.560;2022-11-02T15:08:55;21.40;68.20
63317;DHT22;49822;41.468;13.560;2022-11-02T15:14:30;20.60;69.50
63317;DHT22;49822;41.468;13.560;2022-11-02T15:16:58;20.30;69.70
63317;DHT22;49822;41.468;13.560;2022-11-02T15:19:42;20.00;70.80
63317;DHT22;49822;41.468;13.560;2022-11-02T15:22:44;19.80;73.00
63317;DHT22;49822;41.468;13.560;2022-11-02T15:25:26;19.90;73.50
63317;DHT22;49822;41.468;13.560;2022-11-02T15:27:56;20.00;73.20
63317;DHT22;49822;41.468;13.560;2022-11-02T15:30:30;20.00;73.50
63317;DHT22;49822;41.468;13.560;2022-11-02T15:33:02;20.00;73.60
63317;DHT22;49822;41.468;13.560;2022-11-02T15:35:36;20.00;73.80
63317;DHT22;49822;41.468;13.560;2022-11-02T15:38:06;19.90;74.20
63317;DHT22;49822;41.468;13.560;2022-11-02T15:44:14;19.90;73.70
63317;DHT22;49822;41.468;13.560;2022-11-02T15:47:11;20.00;72.90
63317;DHT22;49822;41.468;13.560;2022-11-02T15:50:08;20.00;72.60
63317;DHT22;49822;41.468;13.560;2022-11-02T15:52:43;20.10;72.50
63317;DHT22;49822;41.468;13.560;2022-11-02T15:55:46;20.10;72.10
63317;DHT22;49822;41.468;13.560;2022-11-02T15:58:33;20.10;72.10
63317;DHT22;49822;41.468;13.560;2022-11-02T16:01:27;20.10;71.90
63317;DHT22;49822;41.468;13.560;2022-11-02T16:04:01;20.10;71.50
63317;DHT22;49822;41.468;13.560;2022-11-02T16:06:43;20.00;72.50
63317;DHT22;49822;41.468;13.560;2022-11-02T16:09:32;19.50;74.20
63317;DHT22;49822;41.468;13.560;2022-11-02T16:12:21;19.30;76.00
63317;DHT22;49822;41.468;13.560;2022-11-02T16:15:16;19.10;77.20
63317;DHT22;49822;41.468;13.560;2022-11-02T16:17:48;19.00;77.10
63317;DHT22;49822;41.468;13.560;2022-11-02T16:20:27;19.00;77.50
63317;DHT22;49822;41.468;13.560;2022-11-02T16:25:40;19.00;77.60
63317;DHT22;49822;41.468;13.560;2022-11-02T16:28:18;18.80;78.70
63317;DHT22;49822;41.468;13.560;2022-11-02T16:33:58;18.60;79.70
63317;DHT22;49822;41.468;13.560;2022-11-02T16:36:30;18.40;81.00
63317;DHT22;49822;41.468;13.560;2022-11-02T16:39:14;18.40;81.10
63317;DHT22;49822;41.468;13.560;2022-11-02T16:41:50;18.40;81.20
63317;DHT22;49822;41.468;13.560;2022-11-02T16:44:27;18.30;81.30
63317;DHT22;49822;41.468;13.560;2022-11-02T16:49:59;18.40;80.80
63317;DHT22;49822;41.468;13.560;2022-11-02T16:52:37;18.50;80.60
63317;DHT22;49822;41.468;13.560;2022-11-02T16:58:22;18.40;80.10
63317;DHT22;49822;41.468;13.560;2022-11-02T17:01:00;18.50;79.40
63317;DHT22;49822;41.468;13.560;2022-11-02T17:03:38;18.50;79.30
63317;DHT22;49822;41.468;13.560;2022-11-02T17:06:08;18.60;79.30
63317;DHT22;49822;41.468;13.560;2022-11-02T17:08:39;18.50;79.70
63317;DHT22;49822;41.468;13.560;2022-11-02T17:11:12;18.30;80.10
63317;DHT22;49822;41.468;13.560;2022-11-02T17:13:50;18.30;80.10
63317;DHT22;49822;41.468;13.560;2022-11-02T17:16:19;18.40;79.70
63317;DHT22;49822;41.468;13.560;2022-11-02T17:18:47;18.40;79.00
63317;DHT22;49822;41.468;13.560;2022-11-02T17:21:20;18.30;79.00
63317;DHT22;49822;41.468;13.560;2022-11-02T17:23:49;18.30;79.00
63317;DHT22;49822;41.468;13.560;2022-11-02T17:26:26;18.30;78.70
63317;DHT22;49822;41.468;13.560;2022-11-02T17:29:00;18.30;78.80
63317;DHT22;49822;41.468;13.560;2022-11-02T17:34:06;18.40;78.60
63317;DHT22;49822;41.468;13.560;2022-11-02T17:36:42;18.30;78.40
63317;DHT22;49822;41.468;13.560;2022-11-02T17:39:13;18.30;78.20
63317;DHT22;49822;41.468;13.560;2022-11-02T17:41:53;18.30;78.10
63317;DHT22;49822;41.468;13.560;2022-11-02T17:44:40;18.20;78.20
63317;DHT22;49822;41.468;13.560;2022-11-02T17:47:11;18.20;78.50
63317;DHT22;49822;41.468;13.560;2022-11-02T17:49:39;18.10;78.60
63317;DHT22;49822;41.468;13.560;2022-11-02T17:52:11;18.00;76.90
63317;DHT22;49822;41.468;13.560;2022-11-02T17:54:39;17.80;77.50
63317;DHT22;49822;41.468;13.560;2022-11-02T17:57:13;17.70;78.30
63317;DHT22;49822;41.468;13.560;2022-11-02T17:59:41;17.60;78.70
63317;DHT22;49822;41.468;13.560;2022-11-02T18:02:13;17.50;79.00
63317;DHT22;49822;41.468;13.560;2022-11-02T18:04:41;17.50;78.70
63317;DHT22;49822;41.468;13.560;2022-11-02T18:07:09;17.50;78.30
63317;DHT22;49822;41.468;13.560;2022-11-02T18:09:37;17.20;79.70
63317;DHT22;49822;41.468;13.560;2022-11-02T18:12:05;17.00;80.60
63317;DHT22;49822;41.468;13.560;2022-11-02T18:14:32;17.10;79.80
63317;DHT22;49822;41.468;13.560;2022-11-02T18:17:03;16.90;80.60
63317;DHT22;49822;41.468;13.560;2022-11-02T18:19:31;16.80;82.00
63317;DHT22;49822;41.468;13.560;2022-11-02T18:22:00;16.80;81.90
63317;DHT22;49822;41.468;13.560;2022-11-02T18:24:28;16.90;81.10
63317;DHT22;49822;41.468;13.560;2022-11-02T18:26:56;17.00;80.30